Hlavní strana
METAR-TAF:

METAR-TAF

Letiště :

Errachidia, Maroko

zeměpisná šířka: 31-56N, zeměpisná délka: 004-24W, výška: 1034 m

Aktuální stav počasí

Zpráva byla vytvořena před 40 minutami, v 06:00 UTC
Severovýchodní vítr 5 kt, proměnlivý mezi severoseverovýchodním a východním
Teplota 24°C
Vlhkost vzduchu 31%
Tlak 1016 hPa
Viditelnost: 6000 m

METAR: GMFK 300600Z 05005KT 030V090 6000 NSC 24/06 Q1016 NOSIG

Čas: 07:40 (06:40 UTC)

Předpověď počasí

Zpráva byla vytvořena před 1 hodinou a 40 minutami, v 05:00 UTC
Předpověď platná od 30 v 06 UTC do 31 v 12 UTC
Jižní vítr 9 kt
Viditelnost: 6000 m

TAF: GMFK 300500Z 3006/3112 19009KT 6000 NSC

Stav a předpovědi počasí z více než 4 000 letišť (zprávy METAR a TAF).

Červené a žluté tečky na mapě představují dostupné meteorologické stanice.

Když kurzor umístíte na tečku, zobrazí se název stanice.

Pak kliknutím zobrazíte stav a předpověď počasí.

Chcete-li změnit mapu, kliknutím na zelené tlačítko se znaménkem +mapu přiblížíte, kliknutím na zelené tlačítko se znaménkem – mapu oddálíte a kliknutím na zelené šipky přejdete na sousední mapy.


METAR-TAF: